Time;durP1;ratioP1;P1;durP2;ratioP2;P2;SDS_P1;SDS_P2;PMS_P1;PMS_P2;Temp;Humidity;BMP_temperature;BMP_pressure;BME280_temperature;BME280_humidity;BME280_pressure;Samples;Min_cycle;Max_cycle;Signal;HPM_P1;HPM_P2
2021/03/08 00:00:17;;;;;;;13.77;7.43;;;3.80;58.00;;;;;;2323343;54;21021;-65
2021/03/08 00:02:43;;;;;;;13.25;7.15;;;3.80;58.10;;;;;;2332700;54;20995;-66
2021/03/08 00:05:10;;;;;;;15.88;7.62;;;3.70;58.00;;;;;;2327060;54;20986;-67
2021/03/08 00:07:36;;;;;;;16.52;7.32;;;3.70;58.10;;;;;;2326319;54;21006;-65
2021/03/08 00:10:04;;;;;;;14.60;7.03;;;3.70;58.20;;;;;;2325361;54;20986;-66
2021/03/08 00:12:31;;;;;;;14.77;7.40;;;3.70;58.30;;;;;;2326985;54;20950;-66
2021/03/08 00:14:57;;;;;;;15.27;7.65;;;3.60;58.20;;;;;;2327501;54;20935;-66
2021/03/08 00:17:23;;;;;;;17.80;8.65;;;3.60;58.30;;;;;;2328119;54;21374;-66
2021/03/08 00:19:50;;;;;;;17.02;8.68;;;3.60;58.40;;;;;;2325957;54;21415;-66
2021/03/08 00:22:17;;;;;;;14.55;7.35;;;3.60;58.40;;;;;;2321766;54;20989;-66
2021/03/08 00:24:43;;;;;;;15.93;7.40;;;3.60;58.50;;;;;;2324250;54;20921;-66
2021/03/08 00:27:10;;;;;;;10.98;5.87;;;3.60;58.60;;;;;;2334969;54;21440;-65
2021/03/08 00:29:38;;;;;;;12.37;6.00;;;3.60;58.60;;;;;;2563798;53;21786;-65
2021/03/08 00:32:07;;;;;;;13.82;6.53;;;3.60;59.20;;;;;;2562034;53;21638;-65
2021/03/08 00:34:33;;;;;;;13.00;6.75;;;3.60;58.60;;;;;;2327198;54;20986;-66
2021/03/08 00:37:00;;;;;;;11.00;5.97;;;3.50;58.50;;;;;;2322664;54;21579;-66
2021/03/08 00:39:26;;;;;;;14.20;6.60;;;3.50;58.50;;;;;;2570187;53;20994;-66
2021/03/08 00:41:53;;;;;;;12.13;6.18;;;3.50;58.50;;;;;;2323417;54;20986;-66
2021/03/08 00:44:20;;;;;;;11.82;5.90;;;3.50;58.60;;;;;;2326907;53;20938;-66
2021/03/08 00:46:46;;;;;;;12.70;6.03;;;3.50;58.60;;;;;;2323437;54;20974;-66
2021/03/08 00:49:13;;;;;;;13.18;6.90;;;3.40;58.50;;;;;;2333795;54;20999;-66
2021/03/08 00:51:39;;;;;;;11.75;6.15;;;3.40;58.60;;;;;;2563632;53;20978;-67
2021/03/08 00:54:05;;;;;;;11.45;5.82;;;3.40;58.70;;;;;;2560399;53;21512;-66
2021/03/08 00:56:34;;;;;;;11.40;5.75;;;3.40;58.70;;;;;;2329906;53;20918;-67
2021/03/08 00:59:00;;;;;;;11.00;5.72;;;3.40;58.70;;;;;;2327660;54;20983;-66
2021/03/08 01:01:27;;;;;;;12.85;6.97;;;3.40;58.60;;;;;;2327115;54;20970;-66
2021/03/08 01:03:53;;;;;;;12.80;6.57;;;3.30;58.60;;;;;;2326954;54;21395;-65
2021/03/08 01:06:20;;;;;;;10.93;5.57;;;3.30;58.60;;;;;;2556306;53;21488;-66
2021/03/08 01:08:46;;;;;;;13.70;6.40;;;3.30;58.60;;;;;;2331918;54;20999;-66
2021/03/08 01:11:13;;;;;;;9.50;5.37;;;3.30;58.60;;;;;;2550421;53;21006;-67
2021/03/08 01:13:39;;;;;;;13.65;6.90;;;3.30;58.60;;;;;;2324838;54;20943;-66
2021/03/08 01:16:05;;;;;;;13.48;6.78;;;3.20;58.50;;;;;;2326756;53;20957;-66
2021/03/08 01:18:32;;;;;;;14.73;7.32;;;3.20;58.60;;;;;;2326690;54;20941;-66
2021/03/08 01:20:58;;;;;;;15.30;7.22;;;3.20;58.50;;;;;;2556140;53;20989;-66
2021/03/08 01:23:25;;;;;;;14.68;7.15;;;3.20;58.50;;;;;;2557851;53;20999;-66
2021/03/08 01:25:51;;;;;;;14.50;7.90;;;3.10;58.50;;;;;;2331794;54;20997;-66
2021/03/08 01:28:17;;;;;;;16.58;8.48;;;3.10;58.50;;;;;;2560632;53;20965;-66
2021/03/08 01:30:46;;;;;;;16.12;7.62;;;3.10;58.60;;;;;;2326496;54;21102;-66
2021/03/08 01:33:13;;;;;;;10.02;5.32;;;3.00;58.60;;;;;;2321312;54;20998;-66
2021/03/08 01:35:40;;;;;;;13.02;6.28;;;3.00;58.60;;;;;;2557261;53;21663;-66
2021/03/08 01:38:06;;;;;;;11.73;6.00;;;3.00;58.60;;;;;;2333160;54;21034;-66
2021/03/08 01:40:33;;;;;;;11.98;6.05;;;3.00;58.60;;;;;;2557463;53;20942;-66
2021/03/08 01:43:00;;;;;;;13.40;6.28;;;3.00;58.70;;;;;;2530562;53;20974;-66
2021/03/08 01:45:26;;;;;;;13.98;6.82;;;2.90;58.60;;;;;;2322697;54;21802;-66
2021/03/08 01:47:53;;;;;;;14.35;7.30;;;2.90;58.60;;;;;;2331436;54;21015;-66
2021/03/08 01:50:39;;;;;;;13.43;6.82;;;2.90;58.60;;;;;;2326186;54;20997;-65
2021/03/08 01:53:08;;;;;;;13.27;6.37;;;2.90;58.60;;;;;;2337424;54;20921;-66
2021/03/08 01:55:46;;;;;;;15.13;6.47;;;2.80;58.50;;;;;;2323301;54;21153;-66
2021/03/08 01:58:12;;;;;;;15.50;7.07;;;2.80;58.50;;;;;;2311969;55;21908;-66
2021/03/08 02:00:39;;;;;;;12.57;6.07;;;2.80;58.50;;;;;;2558165;53;20918;-66
2021/03/08 02:03:05;;;;;;;14.80;7.03;;;2.70;58.50;;;;;;2570945;53;20950;-66
2021/03/08 02:05:36;;;;;;;14.90;7.25;;;2.70;58.50;;;;;;2556210;53;21049;-66
2021/03/08 02:08:05;;;;;;;15.93;6.82;;;2.70;58.50;;;;;;2325866;54;20958;-66
2021/03/08 02:10:33;;;;;;;13.80;6.95;;;2.70;58.60;;;;;;2333169;54;20974;-66
2021/03/08 02:14:55;;;;;;;16.20;7.37;;;2.70;58.70;;;;;;2557872;53;20974;-66
2021/03/08 02:17:22;;;;;;;11.30;5.70;;;2.60;58.40;;;;;;2325476;54;21025;-67
2021/03/08 02:23:05;;;;;;;13.40;5.65;;;2.60;58.50;;;;;;2337482;54;21155;-66
2021/03/08 02:25:36;;;;;;;9.65;5.20;;;2.60;58.50;;;;;;2326921;54;21880;-66
2021/03/08 02:31:18;;;;;;;9.45;5.05;;;2.50;58.60;;;;;;2327432;54;20930;-65
2021/03/08 02:34:18;;;;;;;11.65;5.25;;;2.50;58.60;;;;;;2566440;53;20962;-66
2021/03/08 02:36:46;;;;;;;13.73;6.43;;;2.40;58.60;;;;;;2571369;53;21734;-70
2021/03/08 02:39:14;;;;;;;11.50;5.53;;;2.40;58.70;;;;;;2307505;54;20954;-66
2021/03/08 02:41:41;;;;;;;10.63;5.72;;;2.40;58.80;;;;;;2324423;54;21029;-66
2021/03/08 02:44:09;;;;;;;10.02;4.93;;;2.30;58.80;;;;;;2332254;54;21646;-65
2021/03/08 02:46:37;;;;;;;13.77;5.90;;;2.30;58.80;;;;;;2541704;53;20963;-66
2021/03/08 02:49:06;;;;;;;13.27;6.15;;;2.30;58.90;;;;;;2335464;54;21589;-66
2021/03/08 02:51:33;;;;;;;12.55;6.25;;;2.30;58.90;;;;;;2554686;53;20958;-66
2021/03/08 02:54:00;;;;;;;12.13;6.05;;;2.20;58.80;;;;;;2320152;54;20958;-66
2021/03/08 02:56:28;;;;;;;12.07;6.32;;;2.20;58.80;;;;;;2326776;54;20938;-66
2021/03/08 02:58:54;;;;;;;12.35;6.47;;;2.20;58.80;;;;;;2329074;54;21410;-66
2021/03/08 03:01:20;;;;;;;9.55;4.90;;;2.20;58.90;;;;;;2326464;53;21082;-66
2021/03/08 03:03:50;;;;;;;10.90;6.03;;;2.10;58.80;;;;;;2326083;54;20918;-65
2021/03/08 03:06:16;;;;;;;10.55;5.15;;;2.10;58.90;;;;;;2326220;54;20958;-66
2021/03/08 03:08:43;;;;;;;12.37;5.78;;;2.10;59.00;;;;;;2323905;54;20942;-66
2021/03/08 03:11:09;;;;;;;12.30;6.03;;;2.20;59.00;;;;;;2334904;54;21109;-65
2021/03/08 03:13:39;;;;;;;10.75;5.70;;;2.10;59.00;;;;;;2327995;54;21407;-66
2021/03/08 03:16:07;;;;;;;11.35;5.18;;;2.10;59.10;;;;;;2570410;53;20995;-66
2021/03/08 03:18:34;;;;;;;11.23;5.60;;;2.10;59.10;;;;;;2555592;53;21758;-66
2021/03/08 03:21:02;;;;;;;15.68;6.87;;;2.10;59.10;;;;;;2569563;53;20950;-66
2021/03/08 03:23:28;;;;;;;12.77;6.18;;;2.00;59.00;;;;;;2557230;53;21517;-66
2021/03/08 03:25:55;;;;;;;11.63;5.87;;;2.00;58.90;;;;;;2325915;54;21006;-65
2021/03/08 03:28:23;;;;;;;10.88;5.20;;;2.00;59.00;;;;;;2325840;54;20963;-66
2021/03/08 03:30:49;;;;;;;10.43;5.22;;;2.00;59.00;;;;;;2323703;54;20921;-66
2021/03/08 03:33:15;;;;;;;12.18;5.43;;;2.00;59.00;;;;;;2326310;54;21026;-65
2021/03/08 03:35:43;;;;;;;14.50;5.57;;;1.90;58.90;;;;;;2333302;54;20966;-66
2021/03/08 03:38:11;;;;;;;12.70;5.97;;;1.90;59.00;;;;;;2320470;54;21009;-66
2021/03/08 03:40:37;;;;;;;11.57;5.82;;;1.90;59.00;;;;;;2331261;54;20982;-65
2021/03/08 03:43:03;;;;;;;12.65;5.68;;;1.90;59.10;;;;;;2559003;53;21522;-66
2021/03/08 03:45:30;;;;;;;11.50;6.22;;;1.80;59.00;;;;;;2325712;54;20978;-65
2021/03/08 03:47:56;;;;;;;12.80;6.30;;;1.80;59.00;;;;;;2562872;53;20960;-66
2021/03/08 03:50:22;;;;;;;14.00;6.70;;;1.80;58.90;;;;;;2320115;54;21006;-66
2021/03/08 03:52:49;;;;;;;12.23;6.87;;;1.80;58.90;;;;;;2324416;54;20994;-66
2021/03/08 03:55:17;;;;;;;15.75;6.87;;;1.80;59.00;;;;;;2334798;54;20974;-66
2021/03/08 03:58:32;;;;;;;11.48;5.87;;;1.80;59.10;;;;;;2563125;53;20943;-65
2021/03/08 04:01:04;;;;;;;10.07;5.30;;;1.70;58.90;;;;;;2329870;54;20935;-66
2021/03/08 04:03:39;;;;;;;15.45;5.72;;;1.70;59.00;;;;;;2325028;54;20977;-66
2021/03/08 04:06:05;;;;;;;11.95;6.03;;;1.70;59.00;;;;;;2323020;54;21768;-68
2021/03/08 04:08:32;;;;;;;13.88;6.20;;;1.70;58.90;;;;;;2568000;53;20940;-66
2021/03/08 04:11:01;;;;;;;11.07;6.20;;;1.60;58.90;;;;;;2558271;53;20930;-66
2021/03/08 04:13:29;;;;;;;10.60;4.95;;;1.60;59.00;;;;;;2323763;54;21540;-66
2021/03/08 04:15:56;;;;;;;11.45;5.87;;;1.60;59.00;;;;;;2332236;53;21469;-66
2021/03/08 04:18:23;;;;;;;12.57;6.25;;;1.60;59.00;;;;;;2323727;54;21446;-65
2021/03/08 04:20:50;;;;;;;15.38;6.47;;;1.50;58.90;;;;;;2321932;54;21014;-66
2021/03/08 04:23:16;;;;;;;14.85;6.70;;;1.50;58.90;;;;;;2326081;54;20987;-65
2021/03/08 04:25:45;;;;;;;10.73;5.55;;;1.50;59.10;;;;;;2324054;54;20958;-66
2021/03/08 04:28:11;;;;;;;10.50;5.70;;;1.50;59.20;;;;;;2555696;53;20970;-65
2021/03/08 04:30:37;;;;;;;10.55;5.10;;;1.50;59.20;;;;;;2332631;54;20969;-66
2021/03/08 04:33:03;;;;;;;11.80;5.97;;;1.50;59.20;;;;;;2557505;53;21803;-66
2021/03/08 04:35:30;;;;;;;12.18;5.97;;;1.40;59.10;;;;;;2567204;53;21027;-65
2021/03/08 04:37:57;;;;;;;10.65;5.60;;;1.50;59.20;;;;;;2529875;53;21474;-66
2021/03/08 04:40:27;;;;;;;14.38;6.35;;;1.40;59.10;;;;;;2568579;53;20958;-67
2021/03/08 04:42:53;;;;;;;10.05;5.25;;;1.40;59.00;;;;;;2322335;54;21062;-66
2021/03/08 04:45:19;;;;;;;11.15;5.05;;;1.40;59.00;;;;;;2322328;54;20930;-66
2021/03/08 04:47:49;;;;;;;11.57;5.57;;;1.40;59.10;;;;;;2557783;53;21537;-66
2021/03/08 04:50:16;;;;;;;11.93;5.57;;;1.30;59.00;;;;;;2568321;53;21018;-66
2021/03/08 04:52:52;;;;;;;12.52;5.85;;;1.30;59.10;;;;;;2322343;54;20914;-65
2021/03/08 04:55:20;;;;;;;11.40;5.45;;;1.30;59.10;;;;;;2529807;53;21030;-66
2021/03/08 04:57:46;;;;;;;13.20;5.87;;;1.30;59.10;;;;;;2324797;53;21466;-66
2021/03/08 05:00:13;;;;;;;10.10;5.20;;;1.30;59.10;;;;;;2555059;53;20906;-66
2021/03/08 05:02:44;;;;;;;11.80;5.45;;;1.30;59.10;;;;;;2304218;54;21734;-66
2021/03/08 05:05:13;;;;;;;12.57;6.30;;;1.20;59.00;;;;;;2328771;54;20919;-66
2021/03/08 05:07:41;;;;;;;13.75;6.45;;;1.20;59.00;;;;;;2328833;54;20958;-65
2021/03/08 05:10:09;;;;;;;15.23;7.10;;;1.20;59.10;;;;;;2556018;53;20994;-66
2021/03/08 05:12:36;;;;;;;18.42;8.02;;;1.20;59.10;;;;;;2322466;54;21372;-65
2021/03/08 05:15:04;;;;;;;14.38;7.05;;;1.20;59.10;;;;;;2322141;54;21030;-66
2021/03/08 05:17:30;;;;;;;16.35;7.03;;;1.10;59.10;;;;;;2320985;54;20934;-65
2021/03/08 05:19:57;;;;;;;12.27;6.25;;;1.10;59.10;;;;;;2319230;54;21097;-65
2021/03/08 05:22:24;;;;;;;15.20;6.65;;;1.10;59.10;;;;;;2325606;54;20970;-66
2021/03/08 05:24:50;;;;;;;14.80;6.75;;;1.10;59.10;;;;;;2554772;53;21002;-66
2021/03/08 05:27:16;;;;;;;13.75;5.70;;;1.10;59.10;;;;;;2323265;54;21033;-66
2021/03/08 05:29:43;;;;;;;12.37;5.82;;;1.10;59.20;;;;;;2335948;54;20938;-66
2021/03/08 05:32:10;;;;;;;13.90;6.12;;;1.00;59.10;;;;;;2324098;54;20978;-66
2021/03/08 05:34:41;;;;;;;11.82;6.00;;;1.00;59.10;;;;;;2556863;53;20934;-66
2021/03/08 05:37:08;;;;;;;12.25;5.70;;;1.00;59.20;;;;;;2322886;54;20966;-66
2021/03/08 05:39:35;;;;;;;12.98;6.18;;;1.00;59.20;;;;;;2557249;53;21019;-66
2021/03/08 05:42:17;;;;;;;11.50;5.95;;;1.00;59.20;;;;;;2530473;53;21472;-66
2021/03/08 05:45:00;;;;;;;12.07;5.80;;;1.00;59.20;;;;;;2323125;54;21396;-65
2021/03/08 05:47:36;;;;;;;11.15;6.10;;;1.00;59.20;;;;;;2322017;54;20961;-66
2021/03/08 06:00:00;;;;;;;12.88;6.57;;;0.90;59.10;;;;;;2583969;53;21038;-66
2021/03/08 06:02:54;;;;;;;10.95;5.03;;;0.90;58.90;;;;;;2327836;54;20994;-65
2021/03/08 06:07:13;;;;;;;12.30;6.35;;;0.90;59.00;;;;;;2320855;54;21513;-66
2021/03/08 06:10:21;;;;;;;12.35;5.70;;;0.80;59.10;;;;;;2326331;54;20930;-66
2021/03/08 06:12:50;;;;;;;13.48;6.53;;;0.80;59.20;;;;;;2555662;53;20954;-65
2021/03/08 06:15:17;;;;;;;15.23;7.00;;;0.80;59.30;;;;;;2556912;53;21070;-65
2021/03/08 06:17:44;;;;;;;14.27;7.15;;;0.80;59.40;;;;;;2323449;54;21587;-66
2021/03/08 06:20:11;;;;;;;14.15;7.28;;;0.80;59.50;;;;;;2569983;53;20954;-66
2021/03/08 06:22:38;;;;;;;16.77;8.27;;;0.70;59.50;;;;;;2321785;54;20955;-66
2021/03/08 06:25:06;;;;;;;12.68;6.60;;;0.80;59.70;;;;;;2319173;54;20942;-66
2021/03/08 06:27:33;;;;;;;15.82;7.70;;;0.80;59.80;;;;;;2325898;54;20955;-65
2021/03/08 06:29:59;;;;;;;14.27;7.03;;;0.80;59.80;;;;;;2571076;53;20938;-66
2021/03/08 06:32:25;;;;;;;12.32;6.20;;;0.80;59.90;;;;;;2325805;54;21046;-66
2021/03/08 06:34:52;;;;;;;12.45;6.45;;;0.80;59.90;;;;;;2557802;53;21265;-65
2021/03/08 06:37:18;;;;;;;12.88;6.47;;;0.80;59.90;;;;;;2557635;53;20950;-65
2021/03/08 06:39:46;;;;;;;13.65;6.53;;;0.90;60.10;;;;;;2329462;54;21424;-66
2021/03/08 06:42:14;;;;;;;14.90;7.53;;;0.90;60.10;;;;;;2328684;54;21514;-65
2021/03/08 06:44:40;;;;;;;14.60;6.82;;;0.90;60.10;;;;;;2323443;54;21041;-66
2021/03/08 06:47:08;;;;;;;12.63;6.62;;;0.90;60.20;;;;;;2332725;54;20991;-65
2021/03/08 06:49:34;;;;;;;15.85;7.70;;;1.00;60.40;;;;;;2326382;54;21466;-66
2021/03/08 06:52:18;;;;;;;17.23;8.43;;;1.00;60.40;;;;;;2326115;54;21837;-66
2021/03/08 06:55:00;;;;;;;12.88;6.70;;;1.00;60.40;;;;;;2328832;54;20970;-66
2021/03/08 06:57:29;;;;;;;14.98;8.18;;;1.10;60.50;;;;;;2558737;53;20950;-65
2021/03/08 06:59:56;;;;;;;15.55;7.68;;;1.10;60.60;;;;;;2335410;53;20951;-65
2021/03/08 07:02:23;;;;;;;16.55;8.52;;;1.10;60.70;;;;;;2325468;54;21010;-66
2021/03/08 07:04:50;;;;;;;18.05;8.27;;;1.20;60.80;;;;;;2557174;53;21489;-66
2021/03/08 07:07:17;;;;;;;16.12;8.93;;;1.20;60.90;;;;;;2322807;54;21727;-65
2021/03/08 07:09:50;;;;;;;15.13;8.57;;;1.30;61.10;;;;;;2568629;53;21858;-66
2021/03/08 07:12:17;;;;;;;14.13;7.47;;;1.40;61.30;;;;;;2555985;53;21002;-66
2021/03/08 07:15:04;;;;;;;20.70;10.60;;;1.40;61.40;;;;;;2322441;54;21818;-66
2021/03/08 07:17:47;;;;;;;20.05;10.07;;;1.50;61.50;;;;;;2327422;54;21029;-66
2021/03/08 07:20:15;;;;;;;19.92;10.25;;;1.50;61.60;;;;;;2588934;53;21378;-65
2021/03/08 07:22:51;;;;;;;21.48;10.73;;;1.70;61.80;;;;;;2330788;54;20957;-66
2021/03/08 07:25:31;;;;;;;22.05;11.27;;;1.70;61.90;;;;;;2555250;53;20954;-66
2021/03/08 07:28:05;;;;;;;23.85;12.02;;;1.80;62.00;;;;;;2325513;54;20990;-66
2021/03/08 07:30:38;;;;;;;21.65;11.20;;;1.90;62.10;;;;;;2320691;54;20933;-66
2021/03/08 07:33:38;;;;;;;22.45;11.52;;;1.90;62.10;;;;;;2328370;54;21577;-65
2021/03/08 07:36:14;;;;;;;21.23;10.88;;;2.00;62.10;;;;;;2345312;54;21417;-66
2021/03/08 07:38:43;;;;;;;23.30;12.45;;;2.10;62.10;;;;;;2322324;54;21034;-66
2021/03/08 07:41:14;;;;;;;22.40;12.60;;;2.20;62.30;;;;;;2558764;53;21786;-67
2021/03/08 07:43:42;;;;;;;21.42;11.80;;;2.20;62.30;;;;;;2325924;54;20997;-66
2021/03/08 07:46:33;;;;;;;24.50;12.88;;;2.30;62.40;;;;;;2562833;53;20990;-66
2021/03/08 07:49:00;;;;;;;18.50;10.68;;;2.40;62.60;;;;;;2329152;54;21025;-65
2021/03/08 07:51:27;;;;;;;18.83;11.25;;;2.50;62.70;;;;;;2557621;53;20990;-65
2021/03/08 07:54:06;;;;;;;20.65;11.68;;;2.60;62.80;;;;;;2324962;54;21516;-65
2021/03/08 07:56:33;;;;;;;20.15;11.27;;;2.70;62.70;;;;;;2570470;53;21030;-66
2021/03/08 07:59:01;;;;;;;22.33;12.23;;;2.70;62.50;;;;;;2332621;54;20940;-66
2021/03/08 08:01:28;;;;;;;24.60;12.18;;;2.80;62.50;;;;;;2556554;53;21423;-65
2021/03/08 08:03:55;;;;;;;25.00;13.25;;;2.90;62.60;;;;;;2323489;54;20958;-66
2021/03/08 08:06:24;;;;;;;21.05;12.18;;;3.00;62.60;;;;;;2557552;53;21002;-65
2021/03/08 08:08:53;;;;;;;22.70;13.35;;;3.00;62.60;;;;;;2568808;53;21059;-67
2021/03/08 08:11:20;;;;;;;20.08;11.63;;;3.10;62.70;;;;;;2330961;54;20987;-65
2021/03/08 08:13:48;;;;;;;25.25;14.10;;;3.20;62.80;;;;;;2570379;53;21450;-66
2021/03/08 08:16:14;;;;;;;23.80;13.88;;;3.30;62.90;;;;;;2562876;53;21000;-66
2021/03/08 08:18:42;;;;;;;19.77;11.95;;;3.40;62.90;;;;;;2326542;54;20998;-65
2021/03/08 08:21:16;;;;;;;24.42;14.00;;;3.40;62.90;;;;;;2338849;54;21000;-66
2021/03/08 08:23:44;;;;;;;22.25;12.35;;;3.50;62.90;;;;;;2321072;54;21019;-66
2021/03/08 08:26:17;;;;;;;21.92;12.75;;;3.60;63.20;;;;;;2569881;53;21025;-66
2021/03/08 08:28:44;;;;;;;21.50;12.90;;;3.80;64.10;;;;;;2321948;54;21009;-67
2021/03/08 08:31:10;;;;;;;20.42;11.52;;;4.00;64.90;;;;;;2556821;53;21006;-66
2021/03/08 08:33:37;;;;;;;21.02;12.75;;;4.30;65.70;;;;;;2333149;54;20936;-66
2021/03/08 08:36:16;;;;;;;19.48;12.10;;;4.60;66.40;;;;;;2556968;53;21053;-66
2021/03/08 08:40:34;;;;;;;18.42;11.77;;;5.00;66.60;;;;;;2555041;53;20953;-66
2021/03/08 08:43:19;;;;;;;17.95;10.43;;;5.50;65.00;;;;;;2325881;54;20954;-66
2021/03/08 08:45:47;;;;;;;16.58;10.68;;;5.80;65.60;;;;;;2322365;54;21046;-66
2021/03/08 08:48:15;;;;;;;17.08;10.63;;;6.00;65.90;;;;;;2556179;53;21657;-66
2021/03/08 08:50:46;;;;;;;18.33;11.12;;;6.20;66.60;;;;;;2324744;54;20942;-67
2021/03/08 08:53:40;;;;;;;18.17;10.93;;;6.50;65.90;;;;;;2556929;53;20966;-66
2021/03/08 08:56:07;;;;;;;16.73;10.52;;;6.80;65.60;;;;;;2331017;54;21009;-66
2021/03/08 08:58:48;;;;;;;15.95;10.30;;;7.00;65.90;;;;;;2323857;54;20970;-66
2021/03/08 09:01:25;;;;;;;14.73;9.98;;;7.30;65.00;;;;;;2305474;54;21573;-66
2021/03/08 09:04:12;;;;;;;14.25;9.55;;;7.40;64.50;;;;;;2557673;53;20930;-66
2021/03/08 09:07:41;;;;;;;14.90;8.82;;;7.50;63.20;;;;;;2328234;54;20966;-66
2021/03/08 09:10:08;;;;;;;19.05;8.95;;;7.60;62.20;;;;;;2576727;53;21034;-66
2021/03/08 09:12:37;;;;;;;15.15;9.40;;;7.70;62.80;;;;;;2324907;54;20953;-66
2021/03/08 09:15:09;;;;;;;14.50;10.02;;;7.70;62.80;;;;;;2556330;53;21001;-67
2021/03/08 09:17:48;;;;;;;14.85;9.85;;;7.70;62.50;;;;;;2323708;54;20971;-66
2021/03/08 09:20:27;;;;;;;15.80;10.02;;;7.80;62.20;;;;;;2557260;53;20982;-66
2021/03/08 09:23:03;;;;;;;20.20;10.27;;;7.80;62.20;;;;;;2558133;53;21018;-66
2021/03/08 09:25:30;;;;;;;17.27;9.75;;;7.90;62.40;;;;;;2323579;54;20934;-66
2021/03/08 09:28:10;;;;;;;14.95;9.88;;;7.90;62.60;;;;;;2323124;54;21646;-66
2021/03/08 09:30:45;;;;;;;14.82;9.15;;;8.00;62.80;;;;;;2570224;53;20966;-67
2021/03/08 09:33:21;;;;;;;13.98;9.70;;;8.10;63.30;;;;;;2321231;54;20983;-66
2021/03/08 09:35:50;;;;;;;14.77;9.95;;;8.10;63.80;;;;;;2323572;54;20922;-66
2021/03/08 09:38:32;;;;;;;14.55;9.13;;;8.30;64.40;;;;;;2323356;54;21788;-67
2021/03/08 09:40:59;;;;;;;13.77;8.77;;;8.40;64.90;;;;;;2326296;54;20962;-67
2021/03/08 09:43:33;;;;;;;13.55;9.07;;;8.60;65.40;;;;;;2570772;53;20954;-67
2021/03/08 09:46:00;;;;;;;14.32;10.00;;;8.80;65.80;;;;;;2556181;53;21950;-67
2021/03/08 09:48:28;;;;;;;14.40;10.57;;;9.00;66.80;;;;;;2555058;53;20942;-67
2021/03/08 09:51:01;;;;;;;15.77;11.10;;;9.20;66.20;;;;;;2563939;53;20948;-66
2021/03/08 09:53:32;;;;;;;14.15;9.93;;;9.40;65.70;;;;;;2325196;54;20939;-66
2021/03/08 09:56:05;;;;;;;14.00;9.45;;;9.60;65.90;;;;;;2557246;53;20995;-66
2021/03/08 09:58:38;;;;;;;12.70;9.27;;;9.80;65.60;;;;;;2305272;54;21498;-66
2021/03/08 10:01:19;;;;;;;13.93;9.88;;;10.10;65.00;;;;;;2331330;54;20946;-66
2021/03/08 10:03:47;;;;;;;14.82;10.30;;;10.40;64.90;;;;;;2326052;54;20978;-67
2021/03/08 10:06:32;;;;;;;12.45;9.18;;;10.70;66.50;;;;;;2327521;53;21380;-66
2021/03/08 10:09:14;;;;;;;14.98;9.43;;;11.10;65.50;;;;;;2322752;54;21010;-67
2021/03/08 10:11:43;;;;;;;14.00;9.98;;;11.40;66.30;;;;;;2303304;54;21807;-67
2021/03/08 10:14:23;;;;;;;10.95;8.68;;;11.80;65.90;;;;;;2321872;54;20954;-66
2021/03/08 10:16:50;;;;;;;14.02;9.10;;;12.10;64.30;;;;;;2557010;53;21431;-67
2021/03/08 10:19:20;;;;;;;12.75;9.55;;;12.30;65.40;;;;;;2322906;54;20946;-67
2021/03/08 10:21:47;;;;;;;13.95;10.20;;;12.50;65.30;;;;;;2326013;54;20962;-66
2021/03/08 10:24:35;;;;;;;14.38;9.88;;;12.80;64.80;;;;;;2581193;53;20898;-67
2021/03/08 10:27:09;;;;;;;14.87;10.02;;;13.00;62.70;;;;;;2325544;54;21078;-67
2021/03/08 10:29:39;;;;;;;12.37;9.25;;;13.20;63.70;;;;;;2528371;53;20998;-67
2021/03/08 10:32:08;;;;;;;13.77;9.38;;;13.40;63.20;;;;;;2560398;52;21010;-67
2021/03/08 10:34:35;;;;;;;13.10;9.48;;;13.60;62.80;;;;;;2326223;54;21018;-67
2021/03/08 10:37:04;;;;;;;13.02;9.30;;;13.80;62.60;;;;;;2325788;54;20957;-67
2021/03/08 10:39:31;;;;;;;12.30;9.35;;;14.00;62.80;;;;;;2336955;54;20960;-67
2021/03/08 10:41:57;;;;;;;11.90;9.07;;;14.20;63.00;;;;;;2327784;54;21022;-67
2021/03/08 10:44:24;;;;;;;11.23;8.55;;;14.50;63.60;;;;;;2557845;53;20938;-67
2021/03/08 10:46:50;;;;;;;12.02;8.93;;;14.80;63.80;;;;;;2312893;54;20962;-67
2021/03/08 10:49:17;;;;;;;10.20;7.75;;;15.00;63.60;;;;;;2324296;54;21486;-67
2021/03/08 10:51:43;;;;;;;11.15;8.02;;;15.30;63.10;;;;;;2568494;53;21065;-67
2021/03/08 10:54:12;;;;;;;10.77;7.50;;;15.50;62.40;;;;;;2322983;54;21439;-67
2021/03/08 10:56:39;;;;;;;10.82;7.78;;;15.70;61.90;;;;;;2555901;53;20966;-67
2021/03/08 10:59:24;;;;;;;9.48;7.82;;;15.90;61.40;;;;;;2318222;54;20950;-67
2021/03/08 11:02:07;;;;;;;9.75;7.50;;;16.00;59.40;;;;;;2327552;54;21423;-68
2021/03/08 11:04:36;;;;;;;12.13;8.88;;;16.10;59.20;;;;;;2565929;53;21033;-67
2021/03/08 11:07:03;;;;;;;11.05;7.95;;;16.10;59.10;;;;;;2587916;53;20915;-67
2021/03/08 11:09:37;;;;;;;12.00;9.18;;;16.10;58.40;;;;;;2564820;53;20926;-67
2021/03/08 11:12:04;;;;;;;12.98;8.65;;;15.90;57.10;;;;;;2334523;54;21025;-67
2021/03/08 11:14:46;;;;;;;12.02;8.30;;;15.90;58.10;;;;;;2322152;54;21487;-67
2021/03/08 11:17:12;;;;;;;10.87;7.70;;;15.90;56.90;;;;;;2567409;53;21061;-68
2021/03/08 11:19:42;;;;;;;12.65;8.45;;;15.80;58.00;;;;;;2328799;54;20975;-67
2021/03/08 11:25:06;;;;;;;9.68;7.65;;;15.60;57.50;;;;;;2376413;57;20982;-84
2021/03/08 12:51:29;;;;;;;6.93;5.03;;;16.40;59.50;;;;;;2314434;60;21211;-85
2021/03/08 12:58:13;;;;;;;8.45;5.05;;;16.60;57.80;;;;;;2317473;60;21923;-83
2021/03/08 13:01:04;;;;;;;;;;;;;;;;;;;;;
2021/03/08 13:03:49;;;;;;;7.07;5.03;;;16.60;57.40;;;;;;2342204;58;21009;-84
2021/03/08 13:06:45;;;;;;;7.87;5.40;;;16.60;57.20;;;;;;2148145;59;21527;-83
2021/03/08 13:09:35;;;;;;;6.53;4.68;;;16.60;57.30;;;;;;2345557;58;21054;-85
2021/03/08 13:12:16;;;;;;;7.15;5.15;;;16.60;56.50;;;;;;2146598;58;20958;-83
2021/03/08 13:17:49;;;;;;;7.00;4.80;;;16.50;55.70;;;;;;2133136;58;20098;-84
2021/03/08 13:20:22;;;;;;;7.82;5.05;;;16.50;56.60;;;;;;2149546;58;21010;-84
2021/03/08 13:23:08;;;;;;;8.23;5.32;;;16.50;55.60;;;;;;2117490;58;21104;-83
2021/03/08 13:26:15;;;;;;;;;;;;;;;;;;;;;
2021/03/08 17:47:01;;;;;;;5.47;2.65;;;9.90;53.90;;;;;;2374579;58;21025;-82
2021/03/08 19:24:37;;;;;;;6.70;3.50;;;6.60;54.40;;;;;;2224024;62;21803;-82
2021/03/08 19:27:33;;;;;;;8.57;3.65;;;6.50;54.70;;;;;;2232994;61;21034;-83
2021/03/08 20:40:22;;;;;;;9.50;5.05;;;4.90;55.10;;;;;;2327478;59;21014;-82
2021/03/08 20:51:30;;;;;;;;;;;;;;;;;;;;;
2021/03/08 22:36:22;;;;;;;;;;;;;;;;;;;;;
2021/03/08 22:43:07;;;;;;;;;;;;;;;;;;;;;
2021/03/08 23:19:23;;;;;;;9.45;4.82;;;2.70;56.50;;;;;;2366419;57;21051;-82
2021/03/08 23:22:37;;;;;;;11.82;5.20;;;2.70;56.70;;;;;;2373746;57;21110;-81
2021/03/08 23:26:30;;;;;;;13.13;5.65;;;2.60;56.60;;;;;;2372865;57;20971;-81
2021/03/08 23:29:16;;;;;;;9.50;4.47;;;2.60;56.80;;;;;;2374653;57;21052;-81
2021/03/08 23:32:30;;;;;;;7.87;3.95;;;2.60;56.90;;;;;;2351042;58;20987;-82
2021/03/08 23:49:44;;;;;;;8.77;4.03;;;2.60;56.40;;;;;;2300995;59;21077;-82
2021/03/08 23:52:39;;;;;;;9.35;4.55;;;2.50;56.70;;;;;;2171155;58;21057;-81
2021/03/08 23:55:12;;;;;;;13.30;5.32;;;2.50;56.80;;;;;;2392027;57;21043;-80
